Time;durP1;ratioP1;P1;durP2;ratioP2;P2;SDS_P1;SDS_P2;PMS_P1;PMS_P2;Temp;Humidity;BMP_temperature;BMP_pressure;BME280_temperature;BME280_humidity;BME280_pressure;Samples;Min_cycle;Max_cycle;Signal;HPM_P1;HPM_P2
2023/10/22 00:00:00;;;;;;;0.25;0.25;;;;;;;10.82;98.13;97985.88;4984431;28;20117;-59
2023/10/22 00:02:27;;;;;;;0.10;0.10;;;;;;;10.99;97.50;97989.81;4981778;28;20038;-59
2023/10/22 00:04:54;;;;;;;0.10;0.10;;;;;;;11.01;96.66;97984.97;4982412;28;20254;-59
2023/10/22 00:07:22;;;;;;;0.20;0.20;;;;;;;10.98;97.03;97982.03;4985133;28;20050;-59
2023/10/22 00:09:49;;;;;;;0.20;0.20;;;;;;;10.85;98.33;97991.47;4986212;28;20042;-60
2023/10/22 00:12:19;;;;;;;0.13;0.13;;;;;;;10.83;98.22;98000.88;4990266;28;20517;-60
2023/10/22 00:14:46;;;;;;;0.20;0.20;;;;;;;10.98;97.55;97998.94;4982670;28;20101;-60
2023/10/22 00:17:14;;;;;;;0.20;0.20;;;;;;;10.99;97.80;98002.41;4984498;28;20038;-60
2023/10/22 00:19:46;;;;;;;0.10;0.10;;;;;;;10.93;97.92;98008.88;4981792;28;20056;-60
2023/10/22 00:22:14;;;;;;;0.10;0.10;;;;;;;10.89;98.46;98007.81;4983052;28;20050;-60
2023/10/22 00:24:43;;;;;;;0.10;0.10;;;;;;;10.82;99.38;98007.31;4983686;28;20054;-60
2023/10/22 00:27:10;;;;;;;0.10;0.10;;;;;;;10.79;99.85;98005.97;4983186;28;20051;-60
2023/10/22 00:29:39;;;;;;;0.10;0.10;;;;;;;10.92;99.10;98013.44;4992626;28;20443;-60
2023/10/22 00:32:06;;;;;;;0.20;0.20;;;;;;;10.91;98.88;98014.53;4983969;28;20141;-60
2023/10/22 00:34:34;;;;;;;0.10;0.10;;;;;;;10.79;99.85;98016.69;4987010;28;20160;-60
2023/10/22 00:37:01;;;;;;;0.10;0.10;;;;;;;10.83;99.45;98012.38;4983012;28;20046;-60
2023/10/22 00:39:28;;;;;;;0.10;0.10;;;;;;;10.73;100.00;98012.41;4974094;28;20043;-60
2023/10/22 00:41:54;;;;;;;0.10;0.10;;;;;;;10.69;100.00;98008.69;4979164;28;20045;-60
2023/10/22 00:44:22;;;;;;;0.20;0.20;;;;;;;10.74;100.00;98009.47;4986577;28;20121;-60
2023/10/22 00:46:50;;;;;;;0.10;0.10;;;;;;;10.71;100.00;98010.03;4986734;28;20808;-60
2023/10/22 00:49:17;;;;;;;0.10;0.10;;;;;;;10.74;100.00;98014.84;4986779;28;20045;-60
2023/10/22 00:51:45;;;;;;;0.20;0.20;;;;;;;10.67;100.00;98019.69;4980939;28;20412;-60
2023/10/22 00:54:12;;;;;;;0.20;0.20;;;;;;;10.61;100.00;98019.94;4993584;28;20053;-61
2023/10/22 00:56:38;;;;;;;0.13;0.13;;;;;;;10.62;100.00;98014.34;4966922;28;20053;-60
2023/10/22 00:59:05;;;;;;;0.10;0.10;;;;;;;10.66;100.00;98018.09;4984386;28;20038;-60
2023/10/22 01:01:32;;;;;;;0.20;0.20;;;;;;;10.60;100.00;98015.69;4982887;28;20035;-60
2023/10/22 01:04:01;;;;;;;0.10;0.10;;;;;;;10.63;100.00;98023.16;4984862;28;20043;-60
2023/10/22 01:06:28;;;;;;;0.10;0.10;;;;;;;10.49;100.00;98026.41;4986021;28;20157;-60
2023/10/22 01:08:55;;;;;;;0.10;0.10;;;;;;;10.53;100.00;98024.81;4989447;28;20197;-60
2023/10/22 01:11:22;;;;;;;0.20;0.20;;;;;;;10.51;100.00;98026.97;4985474;28;20068;-60
2023/10/22 01:13:49;;;;;;;0.10;0.10;;;;;;;10.46;100.00;98032.31;4991816;28;20058;-60
2023/10/22 01:16:16;;;;;;;0.20;0.20;;;;;;;10.40;100.00;98033.41;4982818;28;20133;-60
2023/10/22 01:18:43;;;;;;;0.10;0.10;;;;;;;10.56;100.00;98037.66;4987675;28;20038;-60
2023/10/22 01:21:12;;;;;;;0.10;0.10;;;;;;;10.57;100.00;98033.09;4980513;28;20061;-60
2023/10/22 01:23:40;;;;;;;0.10;0.10;;;;;;;10.57;100.00;98033.91;4987177;28;20042;-60
2023/10/22 01:26:09;;;;;;;0.10;0.10;;;;;;;10.60;100.00;98029.88;4990754;28;20679;-60
2023/10/22 01:28:36;;;;;;;0.10;0.10;;;;;;;10.51;100.00;98028.84;4988353;28;20134;-60
2023/10/22 01:31:04;;;;;;;0.10;0.10;;;;;;;10.53;100.00;98024.81;4983332;28;20040;-60
2023/10/22 01:33:31;;;;;;;0.20;0.20;;;;;;;10.63;100.00;98033.88;4986514;28;20767;-60
2023/10/22 01:35:58;;;;;;;0.20;0.20;;;;;;;10.48;100.00;98032.88;4983855;28;20054;-60
2023/10/22 01:38:25;;;;;;;0.20;0.20;;;;;;;10.52;100.00;98039.28;4999596;28;20054;-60
2023/10/22 01:40:54;;;;;;;0.20;0.20;;;;;;;10.49;100.00;98034.47;4986789;28;20067;-60
2023/10/22 01:43:21;;;;;;;0.20;0.20;;;;;;;10.43;100.00;98034.72;4986290;28;20517;-60
2023/10/22 01:45:48;;;;;;;0.20;0.20;;;;;;;10.39;100.00;98031.81;4985754;28;20054;-60
2023/10/22 01:48:15;;;;;;;0.10;0.10;;;;;;;10.53;100.00;98038.22;5015301;28;20430;-61
2023/10/22 01:50:42;;;;;;;0.15;0.15;;;;;;;10.46;100.00;98028.81;4981558;28;20141;-60
2023/10/22 01:53:09;;;;;;;0.30;0.30;;;;;;;10.37;100.00;98025.91;4994688;28;20059;-60
2023/10/22 01:55:36;;;;;;;0.20;0.20;;;;;;;10.26;100.00;98034.97;4986749;28;20161;-60
2023/10/22 01:58:04;;;;;;;0.10;0.10;;;;;;;10.52;100.00;98028.56;4982377;28;20062;-60
2023/10/22 02:00:32;;;;;;;0.17;0.17;;;;;;;10.44;100.00;98029.09;4985930;28;20054;-60
2023/10/22 02:03:00;;;;;;;0.20;0.20;;;;;;;10.64;100.00;98022.13;4985828;28;20066;-60
2023/10/22 02:05:27;;;;;;;0.20;0.20;;;;;;;10.62;100.00;98032.28;4994795;28;20573;-60
2023/10/22 02:07:54;;;;;;;0.10;0.10;;;;;;;10.61;100.00;98030.66;4989009;28;20754;-60
2023/10/22 02:10:21;;;;;;;0.20;0.20;;;;;;;10.62;100.00;98026.94;4982444;28;20055;-60
2023/10/22 02:12:48;;;;;;;0.20;0.20;;;;;;;10.63;100.00;98031.22;4984154;28;20133;-60
2023/10/22 02:15:17;;;;;;;0.20;0.20;;;;;;;10.70;100.00;98037.09;4985207;28;20520;-60
2023/10/22 02:17:44;;;;;;;0.10;0.10;;;;;;;10.74;100.00;98030.13;4981165;28;20100;-60
2023/10/22 02:20:12;;;;;;;0.10;0.10;;;;;;;10.73;100.00;98029.31;4986188;28;20053;-60
2023/10/22 02:22:39;;;;;;;0.20;0.20;;;;;;;10.71;100.00;98044.06;4986723;28;20042;-60
2023/10/22 02:25:07;;;;;;;0.20;0.20;;;;;;;10.73;100.00;98039.22;4986951;28;20050;-60
2023/10/22 02:27:35;;;;;;;0.20;0.20;;;;;;;10.80;100.00;98027.13;4986946;28;20131;-60
2023/10/22 02:30:02;;;;;;;0.20;0.20;;;;;;;10.80;100.00;98031.69;4986479;28;20046;-60
2023/10/22 02:32:30;;;;;;;0.20;0.20;;;;;;;10.81;100.00;98036.00;4977596;28;20046;-60
2023/10/22 02:34:57;;;;;;;0.10;0.10;;;;;;;10.79;100.00;98035.47;4985896;28;20072;-60
2023/10/22 02:37:25;;;;;;;0.20;0.20;;;;;;;10.80;100.00;98037.06;4985656;28;20053;-60
2023/10/22 02:39:52;;;;;;;0.20;0.20;;;;;;;10.80;100.00;98037.06;4989729;28;20043;-60
2023/10/22 02:42:19;;;;;;;0.10;0.10;;;;;;;10.90;100.00;98039.69;4986006;28;20049;-59
2023/10/22 02:44:46;;;;;;;0.20;0.20;;;;;;;10.98;100.00;98047.19;4982292;28;20130;-60
2023/10/22 02:47:13;;;;;;;0.20;0.20;;;;;;;10.96;100.00;98043.19;4981848;28;20047;-60
2023/10/22 02:49:41;;;;;;;0.17;0.17;;;;;;;10.90;100.00;98045.06;4984266;28;20038;-60
2023/10/22 02:52:08;;;;;;;0.13;0.13;;;;;;;10.95;100.00;98053.09;4986697;28;20094;-60
2023/10/22 02:54:35;;;;;;;0.10;0.10;;;;;;;10.95;100.00;98057.66;4983526;28;20157;-60
2023/10/22 02:57:02;;;;;;;0.10;0.10;;;;;;;11.00;100.00;98061.09;4988340;28;20438;-60
2023/10/22 02:59:29;;;;;;;0.10;0.10;;;;;;;10.94;100.00;98066.78;4984905;28;20046;-60
2023/10/22 03:01:56;;;;;;;0.20;0.20;;;;;;;10.91;100.00;98062.78;4986526;28;20077;-60
2023/10/22 03:04:23;;;;;;;0.20;0.20;;;;;;;10.94;100.00;98066.78;4985956;28;20042;-60
2023/10/22 03:06:51;;;;;;;0.10;0.10;;;;;;;10.88;100.00;98059.81;4989124;28;20129;-60
2023/10/22 03:09:18;;;;;;;0.22;0.22;;;;;;;10.86;100.00;98070.81;4983776;28;20073;-60
2023/10/22 03:11:45;;;;;;;0.10;0.10;;;;;;;10.76;100.00;98068.97;4985780;28;20045;-60
2023/10/22 03:14:12;;;;;;;0.20;0.20;;;;;;;10.78;100.00;98074.03;4988568;28;20046;-60
2023/10/22 03:16:39;;;;;;;0.10;0.10;;;;;;;10.72;100.00;98078.63;4997385;28;20081;-60
2023/10/22 03:19:06;;;;;;;0.20;0.20;;;;;;;10.72;100.00;98078.63;4985881;28;20058;-60
2023/10/22 03:21:36;;;;;;;0.10;0.10;;;;;;;10.64;100.00;98078.38;4980979;28;21450;-60
2023/10/22 03:24:07;;;;;;;0.15;0.15;;;;;;;10.56;100.00;98083.22;4986497;28;20068;-60
2023/10/22 03:26:36;;;;;;;0.20;0.20;;;;;;;10.55;100.00;98086.16;4983092;28;20130;-60
2023/10/22 03:29:03;;;;;;;0.20;0.20;;;;;;;10.52;100.00;98076.78;4983541;28;20035;-60
2023/10/22 03:31:30;;;;;;;0.10;0.10;;;;;;;10.49;100.00;98074.66;4989052;28;20034;-60
2023/10/22 03:33:57;;;;;;;0.10;0.10;;;;;;;10.54;100.00;98074.63;4990980;28;20061;-60
2023/10/22 03:36:25;;;;;;;0.10;0.10;;;;;;;10.45;100.00;98078.91;4984003;28;20042;-60
2023/10/22 03:38:52;;;;;;;0.17;0.17;;;;;;;10.43;100.00;98078.38;4984665;28;20050;-60
2023/10/22 03:41:21;;;;;;;0.10;0.10;;;;;;;10.44;100.00;98080.00;4985024;28;20042;-60
2023/10/22 03:43:49;;;;;;;0.20;0.20;;;;;;;10.39;100.00;98080.00;4984989;28;20571;-60
2023/10/22 03:46:16;;;;;;;0.20;0.20;;;;;;;10.38;100.00;98081.06;4985622;28;20068;-60
2023/10/22 03:48:44;;;;;;;0.20;0.20;;;;;;;10.39;100.00;98077.34;4982890;28;20125;-60
2023/10/22 03:51:11;;;;;;;0.20;0.20;;;;;;;10.42;100.00;98079.47;4982006;28;20050;-60
2023/10/22 03:53:38;;;;;;;0.20;0.20;;;;;;;10.36;100.00;98089.38;4985479;28;20048;-60
2023/10/22 03:56:05;;;;;;;0.20;0.20;;;;;;;10.44;100.00;98096.09;4984921;28;20461;-60
2023/10/22 03:58:33;;;;;;;0.10;0.10;;;;;;;10.44;100.00;98089.94;4969136;28;20560;-60
2023/10/22 04:01:00;;;;;;;0.20;0.20;;;;;;;10.41;100.00;98095.78;4985934;28;20594;-60
2023/10/22 04:03:27;;;;;;;0.10;0.10;;;;;;;10.36;100.00;98099.31;4980697;28;20053;-60
2023/10/22 04:05:56;;;;;;;0.20;0.20;;;;;;;10.42;100.00;98095.53;4977009;28;20061;-60
2023/10/22 04:08:23;;;;;;;0.10;0.10;;;;;;;10.52;100.00;98106.25;4982723;28;20057;-60
2023/10/22 04:10:51;;;;;;;0.20;0.20;;;;;;;10.44;100.00;98100.63;4984479;28;20080;-60
2023/10/22 04:13:18;;;;;;;0.20;0.20;;;;;;;10.37;100.00;98103.56;4984511;28;20397;-60
2023/10/22 04:15:48;;;;;;;0.20;0.20;;;;;;;10.39;100.00;98106.00;4983553;28;20639;-60
2023/10/22 04:18:15;;;;;;;0.20;0.20;;;;;;;10.45;100.00;98105.72;4984731;28;20043;-60
2023/10/22 04:20:41;;;;;;;0.13;0.13;;;;;;;10.36;100.00;98110.81;4983405;28;20060;-60
2023/10/22 04:23:09;;;;;;;0.20;0.20;;;;;;;10.27;100.00;98111.59;4983181;28;20085;-60
2023/10/22 04:25:40;;;;;;;0.10;0.10;;;;;;;10.26;100.00;98120.66;4983932;28;20050;-60
2023/10/22 04:28:07;;;;;;;;;;;;;;;10.20;100.00;98119.06;4982015;28;20173;-60
2023/10/22 04:30:36;;;;;;;0.20;0.20;;;;;;;10.24;100.00;98120.16;4979443;28;19930;-60
2023/10/22 04:33:04;;;;;;;0.20;0.20;;;;;;;10.19;100.00;98120.16;4985498;28;20046;-60
2023/10/22 04:35:32;;;;;;;0.20;0.20;;;;;;;10.08;100.00;98130.03;4984353;28;20055;-60
2023/10/22 04:37:59;;;;;;;0.20;0.20;;;;;;;10.05;100.00;98125.22;4984054;28;20077;-59
2023/10/22 04:40:27;;;;;;;0.10;0.10;;;;;;;9.97;100.00;98121.19;4984416;28;20045;-59
2023/10/22 04:42:56;;;;;;;0.20;0.20;;;;;;;10.03;100.00;98122.78;4987553;28;20485;-59
2023/10/22 04:45:23;;;;;;;0.20;0.20;;;;;;;9.94;100.00;98132.44;4988796;28;20039;-60
2023/10/22 04:47:50;;;;;;;0.20;0.20;;;;;;;9.91;100.00;98133.78;4986732;28;20512;-60
2023/10/22 04:50:19;;;;;;;0.13;0.13;;;;;;;9.90;100.00;98137.50;4985494;28;20039;-60
2023/10/22 04:52:46;;;;;;;0.10;0.10;;;;;;;9.91;100.00;98135.66;4988611;28;20133;-60
2023/10/22 04:55:13;;;;;;;0.20;0.20;;;;;;;9.92;100.00;98150.63;4987817;28;20140;-60
2023/10/22 04:57:40;;;;;;;0.20;0.20;;;;;;;9.90;100.00;98147.41;4987494;28;20034;-59
2023/10/22 05:00:08;;;;;;;0.20;0.20;;;;;;;9.92;100.00;98147.94;4990465;28;20047;-60
2023/10/22 05:02:35;;;;;;;0.20;0.20;;;;;;;9.88;100.00;98149.53;4989175;28;20045;-59
2023/10/22 05:05:02;;;;;;;0.17;0.17;;;;;;;9.91;100.00;98157.06;4988382;28;20049;-60
2023/10/22 05:07:30;;;;;;;0.30;0.30;;;;;;;9.82;100.00;98162.09;4986936;28;20424;-60
2023/10/22 05:09:57;;;;;;;0.10;0.10;;;;;;;9.83;100.00;98160.22;4991172;28;21482;-60
2023/10/22 05:12:24;;;;;;;0.10;0.10;;;;;;;9.86;100.00;98168.53;4985840;28;20124;-60
2023/10/22 05:14:51;;;;;;;0.15;0.15;;;;;;;9.82;100.00;98172.81;4984897;28;20420;-60
2023/10/22 05:17:18;;;;;;;0.20;0.20;;;;;;;9.86;100.00;98170.41;4981296;28;20130;-60
2023/10/22 05:19:48;;;;;;;0.20;0.20;;;;;;;9.86;100.00;98173.91;4976710;28;20046;-60
2023/10/22 05:22:15;;;;;;;0.20;0.20;;;;;;;9.87;100.00;98174.69;4984372;28;20042;-59
2023/10/22 05:24:45;;;;;;;0.17;0.17;;;;;;;9.95;100.00;98166.16;4990279;28;20080;-59
2023/10/22 05:27:12;;;;;;;0.20;0.20;;;;;;;9.90;100.00;98183.00;4987490;28;20137;-59
2023/10/22 05:29:39;;;;;;;0.20;0.20;;;;;;;9.87;100.00;98180.84;4987965;28;20046;-60
2023/10/22 05:32:08;;;;;;;0.20;0.20;;;;;;;9.91;100.00;98189.19;4990339;28;20046;-60
2023/10/22 05:34:34;;;;;;;0.20;0.20;;;;;;;9.99;100.00;98191.34;4987900;28;20056;-60
2023/10/22 05:37:01;;;;;;;0.20;0.20;;;;;;;9.88;100.00;98189.69;4987434;28;20125;-60
2023/10/22 05:39:28;;;;;;;0.20;0.20;;;;;;;9.89;100.00;98202.81;4988267;28;20054;-60
2023/10/22 05:41:57;;;;;;;0.15;0.15;;;;;;;9.92;100.00;98201.47;4987840;28;20138;-60
2023/10/22 05:44:24;;;;;;;0.20;0.20;;;;;;;9.96;100.00;98213.28;4986650;28;20050;-60
2023/10/22 05:46:51;;;;;;;0.20;0.20;;;;;;;10.00;100.00;98209.00;4985586;28;20553;-60
2023/10/22 05:49:20;;;;;;;0.22;0.22;;;;;;;10.00;100.00;98217.03;4985298;28;20145;-60
2023/10/22 05:51:47;;;;;;;0.20;0.20;;;;;;;10.01;100.00;98221.31;4990866;28;20045;-60
2023/10/22 05:54:14;;;;;;;0.20;0.20;;;;;;;10.11;100.00;98231.25;4985120;28;20046;-60
2023/10/22 05:56:41;;;;;;;0.20;0.20;;;;;;;10.06;100.00;98224.00;4987169;28;20046;-60
2023/10/22 05:59:10;;;;;;;0.20;0.20;;;;;;;10.03;100.00;98235.22;4987879;28;20448;-60
2023/10/22 06:01:38;;;;;;;0.20;0.20;;;;;;;10.01;100.00;98237.38;4976087;28;20411;-60
2023/10/22 06:04:06;;;;;;;0.20;0.20;;;;;;;10.03;100.00;98248.63;4988205;28;20038;-60
2023/10/22 06:06:33;;;;;;;0.20;0.20;;;;;;;10.10;100.00;98246.50;4982922;28;20058;-60
2023/10/22 06:09:00;;;;;;;0.20;0.20;;;;;;;10.03;100.00;98247.81;4972051;28;20097;-60
2023/10/22 06:11:27;;;;;;;0.20;0.20;;;;;;;10.09;100.00;98255.59;4970193;28;20213;-60
2023/10/22 06:13:56;;;;;;;0.20;0.20;;;;;;;10.04;100.00;98258.28;4979402;28;20077;-60
2023/10/22 06:16:25;;;;;;;0.20;0.20;;;;;;;10.07;100.00;98265.78;4987623;28;20542;-60
2023/10/22 06:18:52;;;;;;;0.20;0.20;;;;;;;10.04;100.00;98277.00;4985119;28;20042;-59
2023/10/22 06:21:19;;;;;;;0.20;0.20;;;;;;;10.17;100.00;98277.59;4984816;28;20043;-60
2023/10/22 06:23:46;;;;;;;0.17;0.17;;;;;;;10.09;100.00;98281.59;4984810;28;20053;-60
2023/10/22 06:26:13;;;;;;;0.20;0.20;;;;;;;10.13;100.00;98275.44;4980940;28;20038;-60
2023/10/22 06:28:41;;;;;;;0.10;0.10;;;;;;;10.15;100.00;98289.34;4981006;28;20047;-60
2023/10/22 06:31:08;;;;;;;0.10;0.10;;;;;;;10.13;100.00;98294.19;4985281;28;20453;-60
2023/10/22 06:33:36;;;;;;;0.20;0.20;;;;;;;10.14;100.00;98295.00;4984752;28;20049;-60
2023/10/22 06:36:16;;;;;;;0.20;0.20;;;;;;;10.26;100.00;98300.09;4988918;28;20052;-60
2023/10/22 06:38:43;;;;;;;0.20;0.20;;;;;;;10.23;100.00;98304.09;4980909;28;20039;-60
2023/10/22 06:41:14;;;;;;;0.17;0.17;;;;;;;10.41;100.00;98308.25;4983177;28;20558;-59
2023/10/22 06:43:41;;;;;;;0.20;0.20;;;;;;;10.38;100.00;98313.31;4979414;28;20141;-60
2023/10/22 06:46:09;;;;;;;0.15;0.15;;;;;;;10.36;100.00;98324.28;4983891;28;20564;-59
2023/10/22 06:48:37;;;;;;;0.20;0.20;;;;;;;10.43;100.00;98324.81;4983381;28;20576;-60
2023/10/22 06:51:09;;;;;;;0.10;0.10;;;;;;;10.50;100.00;98336.09;4985111;28;20043;-60
2023/10/22 06:53:36;;;;;;;0.10;0.10;;;;;;;10.51;100.00;98332.38;4979785;28;20364;-60
2023/10/22 06:56:03;;;;;;;0.10;0.10;;;;;;;10.60;100.00;98337.22;4985837;28;20050;-60
2023/10/22 06:58:30;;;;;;;0.20;0.20;;;;;;;10.55;100.00;98346.03;4980528;28;20058;-60
2023/10/22 07:01:04;;;;;;;0.10;0.10;;;;;;;10.64;100.00;98347.16;4976812;28;21474;-59
2023/10/22 07:03:31;;;;;;;0.20;0.20;;;;;;;10.75;100.00;98350.66;4980614;28;20268;-60
2023/10/22 07:06:00;;;;;;;0.20;0.20;;;;;;;10.78;100.00;98347.44;4999256;28;20460;-60
2023/10/22 07:08:27;;;;;;;0.10;0.10;;;;;;;10.75;100.00;98354.13;4985670;28;20061;-60
2023/10/22 07:10:54;;;;;;;0.20;0.20;;;;;;;10.77;100.00;98353.88;4988523;28;20061;-59
2023/10/22 07:13:21;;;;;;;0.20;0.20;;;;;;;10.72;100.00;98359.22;4985824;28;20134;-59
2023/10/22 07:15:48;;;;;;;0.20;0.20;;;;;;;10.93;100.00;98366.25;4980588;28;20073;-59
2023/10/22 07:18:15;;;;;;;0.20;0.20;;;;;;;10.83;100.00;98355.47;4984753;28;20619;-59
2023/10/22 07:20:42;;;;;;;0.20;0.20;;;;;;;10.93;100.00;98368.94;4986762;28;20122;-59
2023/10/22 07:23:11;;;;;;;0.20;0.20;;;;;;;10.98;100.00;98368.09;4980641;28;20137;-59
2023/10/22 07:25:38;;;;;;;0.10;0.10;;;;;;;10.88;100.00;98366.22;4984873;28;20061;-59
2023/10/22 07:28:06;;;;;;;0.20;0.20;;;;;;;10.90;100.00;98372.13;4985442;28;20133;-59
2023/10/22 07:30:33;;;;;;;0.10;0.10;;;;;;;10.95;100.00;98379.38;4983634;28;20056;-59
2023/10/22 07:33:00;;;;;;;0.10;0.10;;;;;;;10.87;100.00;98378.00;4980228;28;20038;-59
2023/10/22 07:35:27;;;;;;;0.10;0.10;;;;;;;10.93;100.00;98379.66;4982712;28;20050;-59
2023/10/22 07:37:54;;;;;;;0.10;0.10;;;;;;;10.98;100.00;98387.69;4979876;28;20504;-59
2023/10/22 07:40:22;;;;;;;0.20;0.20;;;;;;;11.01;100.00;98389.03;4978611;28;20055;-59
2023/10/22 07:42:49;;;;;;;0.10;0.10;;;;;;;11.09;100.00;98390.41;4979684;28;20042;-59
2023/10/22 07:45:17;;;;;;;0.17;0.17;;;;;;;11.11;100.00;98390.94;4986390;28;20108;-59
2023/10/22 07:47:44;;;;;;;0.20;0.20;;;;;;;11.07;100.00;98387.97;4984379;28;20051;-59
2023/10/22 07:50:11;;;;;;;0.10;0.10;;;;;;;11.27;100.00;98395.25;4982310;28;20048;-59
2023/10/22 07:52:38;;;;;;;0.10;0.10;;;;;;;11.33;100.00;98396.03;4986427;28;20952;-59
2023/10/22 07:55:07;;;;;;;0.20;0.20;;;;;;;11.28;100.00;98394.16;4983381;28;20563;-59
2023/10/22 07:57:35;;;;;;;0.10;0.10;;;;;;;11.29;100.00;98401.16;4982914;28;20072;-59
2023/10/22 08:00:03;;;;;;;0.10;0.10;;;;;;;11.39;100.00;98400.34;4985112;28;20042;-59
2023/10/22 08:02:38;;;;;;;0.20;0.20;;;;;;;11.48;100.00;98397.91;4986090;28;20034;-59
2023/10/22 08:05:06;;;;;;;0.10;0.10;;;;;;;11.47;100.00;98407.06;4982658;28;20470;-59
2023/10/22 08:07:33;;;;;;;0.20;0.20;;;;;;;11.51;100.00;98402.78;4979118;28;20066;-59
2023/10/22 08:10:01;;;;;;;0.10;0.10;;;;;;;11.62;100.00;98407.84;4982375;28;20134;-59
2023/10/22 08:12:28;;;;;;;0.10;0.10;;;;;;;11.69;100.00;98404.91;4980653;28;20046;-59
2023/10/22 08:14:56;;;;;;;0.17;0.17;;;;;;;11.67;100.00;98407.06;4985087;28;20046;-59
2023/10/22 08:17:23;;;;;;;0.20;0.20;;;;;;;11.84;100.00;98418.31;4989669;28;20108;-59
2023/10/22 08:19:50;;;;;;;0.13;0.13;;;;;;;11.90;100.00;98415.66;4984609;28;20383;-60
2023/10/22 08:22:17;;;;;;;0.10;0.10;;;;;;;12.10;100.00;98423.66;4985515;28;20733;-60
2023/10/22 08:24:47;;;;;;;0.10;0.10;;;;;;;12.02;100.00;98424.22;4982737;28;20047;-59
2023/10/22 08:27:14;;;;;;;0.10;0.10;;;;;;;12.38;100.00;98440.25;4976502;28;20053;-59
2023/10/22 08:29:41;;;;;;;0.10;0.10;;;;;;;12.19;100.00;98443.53;4982720;28;20052;-59
2023/10/22 08:32:09;;;;;;;0.10;0.10;;;;;;;12.11;100.00;98443.28;4979958;28;20046;-59
2023/10/22 08:34:36;;;;;;;0.10;0.10;;;;;;;12.09;100.00;98447.03;4981568;28;20129;-59
2023/10/22 08:37:04;;;;;;;0.15;0.15;;;;;;;12.17;100.00;98452.94;4982902;28;20050;-59
2023/10/22 08:39:31;;;;;;;0.20;0.20;;;;;;;11.98;100.00;98450.84;4979657;28;20067;-60
2023/10/22 08:42:00;;;;;;;0.10;0.10;;;;;;;12.13;100.00;98458.06;4976898;28;20061;-60
2023/10/22 08:44:27;;;;;;;0.10;0.10;;;;;;;12.02;100.00;98468.00;4977040;28;20139;-59
2023/10/22 08:46:54;;;;;;;0.10;0.10;;;;;;;12.26;100.00;98468.25;4976428;28;20493;-59
2023/10/22 08:49:22;;;;;;;0.20;0.20;;;;;;;12.15;100.00;98474.69;4981097;28;20046;-60
2023/10/22 08:51:49;;;;;;;0.20;0.20;;;;;;;12.01;100.00;98482.50;4979209;28;20508;-59
2023/10/22 08:54:16;;;;;;;0.10;0.10;;;;;;;11.89;100.00;98483.88;4980118;28;20050;-59
2023/10/22 08:56:43;;;;;;;0.13;0.13;;;;;;;11.71;100.00;98482.50;4979267;28;20085;-59
2023/10/22 08:59:10;;;;;;;0.10;0.10;;;;;;;11.90;100.00;98486.25;4979600;28;20046;-59
2023/10/22 09:01:37;;;;;;;0.15;0.15;;;;;;;11.92;100.00;98499.44;4979183;28;20031;-59
2023/10/22 09:04:05;;;;;;;0.20;0.20;;;;;;;11.85;100.00;98489.72;4982236;28;20042;-60
2023/10/22 09:06:33;;;;;;;0.10;0.10;;;;;;;12.02;100.00;98494.06;4982299;28;20050;-59
2023/10/22 09:09:00;;;;;;;0.10;0.10;;;;;;;12.04;100.00;98498.06;4987964;28;20037;-60
2023/10/22 09:11:27;;;;;;;0.20;0.20;;;;;;;12.11;100.00;98491.66;4994121;28;20039;-59
2023/10/22 09:13:54;;;;;;;0.10;0.10;;;;;;;12.03;100.00;98501.84;4981791;28;20038;-59
2023/10/22 09:16:29;;;;;;;0.10;0.10;;;;;;;12.13;100.00;98501.03;4980515;28;20070;-59
2023/10/22 09:18:57;;;;;;;0.10;0.10;;;;;;;12.26;100.00;98511.22;4976385;28;20050;-59
2023/10/22 09:21:25;;;;;;;0.10;0.10;;;;;;;12.42;100.00;98500.44;4982196;28;20050;-59
2023/10/22 09:24:05;;;;;;;0.10;0.10;;;;;;;12.28;100.00;98498.34;4980139;28;20052;-59
2023/10/22 09:26:42;;;;;;;0.10;0.10;;;;;;;12.45;100.00;98499.91;4983423;28;20046;-59
2023/10/22 09:29:09;;;;;;;0.10;0.10;;;;;;;12.41;100.00;98506.91;4973556;28;20043;-59
2023/10/22 09:31:37;;;;;;;0.10;0.10;;;;;;;12.43;100.00;98510.09;4981127;28;20132;-59
2023/10/22 09:34:04;;;;;;;0.10;0.10;;;;;;;12.56;100.00;98514.13;4988321;28;20043;-59
2023/10/22 09:36:31;;;;;;;0.10;0.10;;;;;;;12.32;100.00;98513.91;4985777;28;20444;-59
2023/10/22 09:38:59;;;;;;;0.10;0.10;;;;;;;12.29;100.00;98524.13;4979201;28;20709;-59
2023/10/22 09:41:29;;;;;;;0.10;0.10;;;;;;;12.14;100.00;98513.38;4980624;28;20049;-59
2023/10/22 09:43:57;;;;;;;0.10;0.10;;;;;;;12.27;100.00;98531.63;4989705;28;20481;-60
2023/10/22 09:46:25;;;;;;;0.10;0.10;;;;;;;12.24;100.00;98517.94;4986818;28;20531;-59
2023/10/22 09:48:52;;;;;;;0.10;0.10;;;;;;;12.30;100.00;98528.44;4985791;28;21036;-59
2023/10/22 09:51:19;;;;;;;0.10;0.10;;;;;;;12.25;100.00;98533.78;4986897;28;20069;-59
2023/10/22 09:53:51;;;;;;;0.10;0.10;;;;;;;12.13;100.00;98540.50;4993152;28;20046;-59
2023/10/22 09:56:20;;;;;;;0.10;0.10;;;;;;;12.21;100.00;98542.66;4986883;28;20057;-59
2023/10/22 09:58:49;;;;;;;0.10;0.10;;;;;;;12.05;100.00;98547.22;4985209;28;20205;-59
2023/10/22 10:01:16;;;;;;;0.20;0.20;;;;;;;12.01;100.00;98556.91;4982446;28;20121;-59
2023/10/22 10:03:43;;;;;;;0.10;0.10;;;;;;;12.07;100.00;98559.31;4984178;28;20133;-59
2023/10/22 10:06:10;;;;;;;0.10;0.10;;;;;;;12.02;100.00;98558.50;4982734;28;20464;-59
2023/10/22 10:08:38;;;;;;;0.10;0.10;;;;;;;12.13;100.00;98564.69;4985139;28;20042;-59
2023/10/22 10:11:06;;;;;;;0.10;0.10;;;;;;;12.05;100.00;98568.72;4980880;28;20053;-60
2023/10/22 10:13:35;;;;;;;0.10;0.10;;;;;;;12.03;100.00;98560.09;4987251;28;20638;-60
2023/10/22 10:16:04;;;;;;;0.13;0.13;;;;;;;11.89;100.00;98575.16;4980255;28;20056;-60
2023/10/22 10:19:00;;;;;;;0.10;0.10;;;;;;;11.77;100.00;98576.16;4986083;28;20133;-60
2023/10/22 10:21:43;;;;;;;0.10;0.10;;;;;;;11.91;100.00;98576.50;4984466;28;20044;-59
2023/10/22 10:24:17;;;;;;;0.10;0.10;;;;;;;11.93;100.00;98581.59;4981942;28;20156;-59
2023/10/22 10:26:45;;;;;;;0.10;0.10;;;;;;;12.12;100.00;98585.38;4981438;28;20069;-60
2023/10/22 10:29:14;;;;;;;0.10;0.10;;;;;;;12.03;100.00;98576.22;4985127;28;20069;-59
2023/10/22 10:31:45;;;;;;;0.10;0.10;;;;;;;12.12;100.00;98588.06;4979606;28;20061;-59
2023/10/22 10:34:21;;;;;;;0.10;0.10;;;;;;;11.98;100.00;98595.03;4981526;28;20050;-59
2023/10/22 10:36:49;;;;;;;0.10;0.10;;;;;;;12.13;100.00;98592.38;4986068;28;20508;-59
2023/10/22 10:39:36;;;;;;;0.10;0.10;;;;;;;12.24;100.00;98593.19;4982695;28;20078;-59
2023/10/22 10:42:03;;;;;;;0.15;0.15;;;;;;;12.38;100.00;98593.44;4985740;28;20040;-59
2023/10/22 10:44:31;;;;;;;0.10;0.10;;;;;;;12.16;100.00;98594.53;4982728;28;20531;-59
2023/10/22 10:47:33;;;;;;;0.10;0.10;;;;;;;12.56;100.00;98587.50;4979324;28;20070;-59
2023/10/22 10:50:03;;;;;;;0.20;0.20;;;;;;;12.78;100.00;98591.75;4989680;28;20376;-59
2023/10/22 10:52:32;;;;;;;0.10;0.10;;;;;;;13.06;100.00;98591.16;4977846;28;20051;-59
2023/10/22 10:55:00;;;;;;;0.10;0.10;;;;;;;12.95;100.00;98587.72;4983861;28;20047;-60
2023/10/22 10:57:34;;;;;;;0.10;0.10;;;;;;;13.17;100.00;98586.56;4982415;28;20140;-60
2023/10/22 11:00:02;;;;;;;0.10;0.10;;;;;;;13.26;100.00;98597.56;4978603;28;20043;-60
2023/10/22 11:02:30;;;;;;;0.10;0.10;;;;;;;13.35;100.00;98590.53;4987720;28;20038;-60
2023/10/22 11:04:57;;;;;;;0.10;0.10;;;;;;;13.14;100.00;98601.34;4985837;28;20137;-60
2023/10/22 11:07:26;;;;;;;0.10;0.10;;;;;;;12.58;100.00;98592.59;4983948;28;20050;-60
2023/10/22 11:09:56;;;;;;;0.10;0.10;;;;;;;12.82;100.00;98598.22;4982684;28;20136;-60
2023/10/22 11:12:24;;;;;;;0.10;0.10;;;;;;;12.73;100.00;98598.78;4983750;28;20049;-60
2023/10/22 11:14:54;;;;;;;0.10;0.10;;;;;;;12.36;100.00;98606.34;4979382;28;20042;-60
2023/10/22 11:17:21;;;;;;;0.10;0.10;;;;;;;12.52;100.00;98607.94;4996582;28;20047;-60
2023/10/22 11:19:50;;;;;;;0.10;0.10;;;;;;;12.42;100.00;98603.38;4984636;28;20439;-59
2023/10/22 11:22:17;;;;;;;0.10;0.10;;;;;;;12.52;100.00;98610.63;4979737;28;20093;-59
2023/10/22 11:24:45;;;;;;;0.10;0.10;;;;;;;12.48;100.00;98601.47;4982123;28;20116;-59
2023/10/22 11:27:12;;;;;;;0.10;0.10;;;;;;;12.38;100.00;98609.56;4979306;28;20133;-59
2023/10/22 11:29:40;;;;;;;0.10;0.10;;;;;;;12.44;100.00;98613.88;4982634;28;20049;-60